Kah Nee Ta, Oregon
Current Conditions -  °F | °C
As of 12:56 AM on Sunday 23 Nov 2014 (Local Time) from KRDM Reporting Station
Clear Clear  
Wind Chill: 25°   Ceiling: Unl
Heat Index: 30°   Visibility: 10mi
Dew Point: 27°   Wind: 5mph
Humidity: 88%   Direction: 200°SSW
Pressure: 30.21"   Gusts: NA
Location:  44.7239°N, 121.498°W
Report Text: KRDM 230856Z AUTO 20004KT 10SM CLR M01/M03 A3021 RMK AO2 SLP247 T10111028 51018
Loading
Personal Weather Stations






























Interactive Weather Map New forecast layout! Learn more

10-Day Weather Forecast

Advertisements
Track Severe Weather on mobile